createdAt,value
2022-09-03T00:24:45.637Z,1013.1
2022-09-03T00:54:45.644Z,1013.13
2022-09-03T01:24:45.655Z,1013.21
2022-09-03T01:54:45.654Z,1013.18
2022-09-03T02:24:45.668Z,1013.27
2022-09-03T02:54:45.668Z,1013.14
2022-09-03T03:24:45.687Z,1012.97
2022-09-03T03:54:45.684Z,1013.12
2022-09-03T04:24:45.691Z,1013.02
2022-09-03T04:54:45.695Z,1013.19
2022-09-03T05:24:45.697Z,1013.27
2022-09-03T05:54:45.711Z,1013.25
2022-09-03T06:24:45.693Z,1013.45
2022-09-03T06:54:45.689Z,1013.54
2022-09-03T07:24:45.701Z,1013.42
2022-09-03T07:54:45.705Z,1013.47
2022-09-03T08:24:45.708Z,1013.45
2022-09-03T08:54:45.712Z,1013.47
2022-09-03T09:24:45.731Z,1013.24
2022-09-03T09:54:45.755Z,1012.93
2022-09-03T10:24:45.749Z,1012.9
2022-09-03T10:54:45.745Z,1012.64
2022-09-03T11:24:45.751Z,1012.53
2022-09-03T11:54:45.753Z,1012.19
2022-09-03T12:24:45.755Z,1011.9
2022-09-03T12:54:45.866Z,1011.83
2022-09-03T13:24:45.778Z,1011.89
2022-09-03T13:54:49.494Z,1011.99
2022-09-03T14:24:45.763Z,1011.86
2022-09-03T14:54:45.781Z,1011.86
2022-09-03T15:24:45.771Z,1011.83
2022-09-03T15:54:45.775Z,1011.99
2022-09-03T16:24:45.773Z,1012.45
2022-09-03T16:54:55.627Z,1012.98
2022-09-03T17:24:45.798Z,1012.93
2022-09-03T17:54:45.819Z,1013.21
2022-09-03T18:24:45.840Z,1013.34
2022-09-03T18:55:44.313Z,1013.68
2022-09-03T19:25:44.178Z,1014.06
2022-09-03T19:55:44.203Z,1014.29
2022-09-03T20:25:44.210Z,1014.39
2022-09-03T20:55:44.234Z,1014.47
2022-09-03T21:25:44.234Z,1014.56
2022-09-03T21:55:44.219Z,1014.81
2022-09-03T22:25:44.225Z,1014.91
2022-09-03T22:55:44.277Z,1015.01
2022-09-03T23:25:44.294Z,1015
2022-09-03T23:55:44.232Z,1015.19
